ソウル/仁川 の空港の天気 - METARとTAF

仁川国際空港 ( RKSI / ICN ) - 韓国 仁川広域市 (ソウル特別市近郊)
飛行場実況気象(Metar)
観測時間10/16 16:30 KST (10/16 07:30 UTC)
風向・風速西北西 4m/s
視程10km以上
天気現象
なし
気温17℃
湿度52%
気圧1025hPa
METARRKSI 160730Z 30007KT CAVOK 17/07 Q1025 NOSIG
過去の天気等 Google飛行場航空写真 Wunderground天気予報

過去48時間のMETAR

飛行場予報(TAF)
発表時間: 10/16 14:00 KST (10/16 05:00 UTC)
予報対象時間: 16日15時 KST ~ 17日21時 KST
風向・風速北北西 5m/s
視程10km以上
なし
16日21時 KST ~ 16日22時 KST に徐々に
風向・風速北東 3m/s
17日12時 KST ~ 17日13時 KST に徐々に
風向・風速北 5m/s
17日14時 KST ~ 17日15時 KST に徐々に
風向・風速北東 3m/s
TAF RKSI 160500Z 1606/1712 34010KT CAVOK TN11/1621Z TX19/1706Z
BECMG 1612/1613 05006KT
BECMG 1703/1704 35010KT
BECMG 1705/1706 05006KT